Time;durP1;ratioP1;P1;durP2;ratioP2;P2;SDS_P1;SDS_P2;PMS_P1;PMS_P2;Temp;Humidity;BMP_temperature;BMP_pressure;BME280_temperature;BME280_humidity;BME280_pressure;Samples;Min_cycle;Max_cycle;Signal;HPM_P1;HPM_P2
2023/05/25 00:01:29;;;;;;;28.88;8.05;;;17.30;83.20;;;;;;4985949;28;20122;-53
2023/05/25 00:03:54;;;;;;;27.60;7.85;;;17.30;83.20;;;;;;4986691;28;20430;-53
2023/05/25 00:06:20;;;;;;;24.77;7.25;;;17.30;83.10;;;;;;4986799;28;20086;-54
2023/05/25 00:08:47;;;;;;;25.63;7.35;;;17.30;83.30;;;;;;4985860;28;20129;-53
2023/05/25 00:11:13;;;;;;;25.60;6.93;;;17.30;83.30;;;;;;4985341;28;20091;-53
2023/05/25 00:13:39;;;;;;;20.25;6.00;;;17.30;83.20;;;;;;4984957;28;20046;-53
2023/05/25 00:16:05;;;;;;;21.15;6.13;;;17.20;83.00;;;;;;4985693;28;20027;-53
2023/05/25 00:18:36;;;;;;;16.55;6.40;;;17.20;82.90;;;;;;5018780;28;20022;-54
2023/05/25 00:21:05;;;;;;;19.02;6.05;;;17.20;83.00;;;;;;4967746;28;20069;-54
2023/05/25 00:23:31;;;;;;;21.38;6.78;;;17.20;83.00;;;;;;4984705;28;20027;-53
2023/05/25 00:25:56;;;;;;;25.05;7.20;;;17.20;82.90;;;;;;5018087;28;20044;-53
2023/05/25 00:28:22;;;;;;;18.83;6.07;;;17.10;82.90;;;;;;4985570;28;20070;-53
2023/05/25 00:30:48;;;;;;;15.93;5.68;;;17.20;82.90;;;;;;4985643;28;20038;-53
2023/05/25 00:33:14;;;;;;;23.38;5.95;;;17.10;82.30;;;;;;4985414;28;20034;-53
2023/05/25 00:35:41;;;;;;;19.83;5.65;;;17.10;82.50;;;;;;4985429;28;20030;-53
2023/05/25 00:38:20;;;;;;;19.35;6.05;;;17.10;82.50;;;;;;4986845;28;20033;-53
2023/05/25 00:40:45;;;;;;;19.05;5.70;;;17.10;82.50;;;;;;4986763;28;20023;-53
2023/05/25 00:43:11;;;;;;;15.23;5.57;;;17.10;82.50;;;;;;4985445;28;20034;-54
2023/05/25 00:45:37;;;;;;;20.15;6.18;;;17.10;82.50;;;;;;4983766;28;20042;-54
2023/05/25 00:48:04;;;;;;;12.15;5.53;;;17.00;82.40;;;;;;4985857;28;20031;-54
2023/05/25 00:50:40;;;;;;;15.98;5.55;;;17.00;82.40;;;;;;4985309;28;20039;-53
2023/05/25 00:53:07;;;;;;;14.75;5.65;;;17.00;82.40;;;;;;4984346;28;20058;-53
2023/05/25 00:55:35;;;;;;;12.88;5.28;;;17.00;82.40;;;;;;4984585;28;20031;-53
2023/05/25 00:58:01;;;;;;;18.05;5.93;;;17.00;82.30;;;;;;4984954;28;20038;-53
2023/05/25 01:00:27;;;;;;;18.88;5.70;;;17.00;82.30;;;;;;4984839;28;20027;-53
2023/05/25 01:02:55;;;;;;;15.02;5.75;;;17.00;82.20;;;;;;4973794;28;20027;-53
2023/05/25 01:05:20;;;;;;;15.05;5.00;;;17.00;82.20;;;;;;4985174;28;20061;-54
2023/05/25 01:07:46;;;;;;;11.45;4.78;;;17.00;82.00;;;;;;4968985;28;20035;-53
2023/05/25 01:10:11;;;;;;;11.15;4.78;;;17.00;82.10;;;;;;4984769;28;20054;-53
2023/05/25 01:12:37;;;;;;;13.60;5.10;;;16.90;82.00;;;;;;4982967;28;20038;-53
2023/05/25 01:15:04;;;;;;;16.42;4.88;;;16.90;82.10;;;;;;4983461;28;20087;-53
2023/05/25 01:17:29;;;;;;;7.88;4.20;;;16.90;82.00;;;;;;4984389;28;20031;-53
2023/05/25 01:19:57;;;;;;;13.18;4.70;;;16.90;82.00;;;;;;4985815;28;20035;-53
2023/05/25 01:22:24;;;;;;;13.13;4.90;;;16.90;82.00;;;;;;4984489;28;20043;-54
2023/05/25 01:25:01;;;;;;;11.40;5.00;;;16.80;81.90;;;;;;4984245;28;20423;-53
2023/05/25 01:27:42;;;;;;;8.85;5.28;;;16.80;81.90;;;;;;4984464;28;20034;-54
2023/05/25 01:30:10;;;;;;;11.63;5.28;;;16.80;81.80;;;;;;4984836;28;20035;-54
2023/05/25 01:32:36;;;;;;;17.38;5.22;;;16.80;81.80;;;;;;4970572;28;20031;-54
2023/05/25 01:35:03;;;;;;;14.38;5.10;;;16.80;81.90;;;;;;4988870;28;20037;-54
2023/05/25 01:37:30;;;;;;;11.85;5.03;;;16.80;81.80;;;;;;4989282;28;20051;-53
2023/05/25 01:39:55;;;;;;;10.90;4.65;;;16.80;81.70;;;;;;4988652;28;20098;-54
2023/05/25 01:42:21;;;;;;;12.77;5.43;;;16.80;81.60;;;;;;4988504;28;20037;-53
2023/05/25 01:44:46;;;;;;;12.05;4.97;;;16.80;81.70;;;;;;4989764;28;20478;-53
2023/05/25 01:47:31;;;;;;;12.40;5.30;;;16.70;81.60;;;;;;4988325;28;20034;-53
2023/05/25 01:50:03;;;;;;;11.88;5.38;;;16.70;81.60;;;;;;4987012;28;20042;-54
2023/05/25 01:52:31;;;;;;;14.82;5.45;;;16.70;81.70;;;;;;4987398;28;20495;-54
2023/05/25 01:55:02;;;;;;;11.70;4.85;;;16.70;81.80;;;;;;4987196;28;20038;-53
2023/05/25 01:57:27;;;;;;;12.52;4.95;;;16.70;81.90;;;;;;4986972;28;20034;-53
2023/05/25 01:59:54;;;;;;;11.18;5.35;;;16.70;82.00;;;;;;4971393;28;20031;-53
2023/05/25 02:02:20;;;;;;;10.98;5.22;;;16.70;82.20;;;;;;5004091;28;20022;-53
2023/05/25 02:04:46;;;;;;;10.30;5.10;;;16.60;82.10;;;;;;4987846;28;20065;-53
2023/05/25 02:07:11;;;;;;;10.50;4.70;;;16.60;82.10;;;;;;4987381;28;20030;-53
2023/05/25 02:09:37;;;;;;;9.10;4.70;;;16.60;82.20;;;;;;4987013;28;20158;-53
2023/05/25 02:12:03;;;;;;;9.15;4.50;;;16.60;82.20;;;;;;4988545;28;20034;-53
2023/05/25 02:14:28;;;;;;;10.57;4.95;;;16.60;82.20;;;;;;4987631;28;20086;-53
2023/05/25 02:16:54;;;;;;;8.50;4.68;;;16.60;82.20;;;;;;4987102;28;20043;-54
2023/05/25 02:19:19;;;;;;;11.00;5.15;;;16.60;82.20;;;;;;4986692;28;20035;-53
2023/05/25 02:21:45;;;;;;;11.05;4.60;;;16.60;82.20;;;;;;4987157;28;20037;-54
2023/05/25 02:24:11;;;;;;;16.88;5.00;;;16.60;82.20;;;;;;4988770;28;20046;-53
2023/05/25 02:26:37;;;;;;;12.82;5.50;;;16.60;82.10;;;;;;5019075;28;20027;-54
2023/05/25 02:29:03;;;;;;;13.88;4.78;;;16.50;82.20;;;;;;4987148;28;20046;-53
2023/05/25 02:31:28;;;;;;;11.90;4.72;;;16.60;82.30;;;;;;4988466;28;20096;-53
2023/05/25 02:33:54;;;;;;;8.98;4.57;;;16.50;82.30;;;;;;4987487;28;20440;-53
2023/05/25 02:36:20;;;;;;;10.93;4.88;;;16.50;82.30;;;;;;4987077;28;20025;-53
2023/05/25 02:38:48;;;;;;;9.00;4.40;;;16.50;82.30;;;;;;4987731;28;20035;-53
2023/05/25 02:41:15;;;;;;;8.80;4.70;;;16.50;82.30;;;;;;4987164;28;20027;-54
2023/05/25 02:43:40;;;;;;;10.15;5.03;;;16.40;82.30;;;;;;4986892;28;20055;-53
2023/05/25 02:46:06;;;;;;;9.00;4.60;;;16.40;82.40;;;;;;4986158;28;20042;-53
2023/05/25 02:48:31;;;;;;;18.05;5.30;;;16.40;82.40;;;;;;4987164;28;20035;-53
2023/05/25 02:50:57;;;;;;;9.70;5.95;;;16.40;82.50;;;;;;4986615;28;20491;-53
2023/05/25 02:53:22;;;;;;;14.00;6.85;;;16.40;82.60;;;;;;4986817;28;20166;-54
2023/05/25 02:55:48;;;;;;;14.38;5.93;;;16.40;82.70;;;;;;4986972;28;20132;-53
2023/05/25 02:58:13;;;;;;;12.90;5.28;;;16.30;82.70;;;;;;5019196;28;20531;-54
2023/05/25 03:00:41;;;;;;;7.82;5.10;;;16.30;82.70;;;;;;4986578;28;20035;-54
2023/05/25 03:03:07;;;;;;;9.70;5.20;;;16.30;82.90;;;;;;4986890;28;20106;-53
2023/05/25 03:05:34;;;;;;;9.27;5.30;;;16.30;82.90;;;;;;4987614;28;20171;-53
2023/05/25 03:08:00;;;;;;;12.23;5.25;;;16.30;83.00;;;;;;4986762;28;20034;-53
2023/05/25 03:10:25;;;;;;;11.93;5.13;;;16.30;83.10;;;;;;4973641;28;20166;-53
2023/05/25 03:12:51;;;;;;;9.23;4.90;;;16.30;83.20;;;;;;4982936;28;20054;-54
2023/05/25 03:15:16;;;;;;;9.65;4.85;;;16.30;83.30;;;;;;4985952;28;20062;-53
2023/05/25 03:17:42;;;;;;;11.65;5.28;;;16.20;83.40;;;;;;4986856;28;20178;-53
2023/05/25 03:20:09;;;;;;;8.45;5.07;;;16.20;83.40;;;;;;4985063;28;20034;-54
2023/05/25 03:22:35;;;;;;;9.18;5.63;;;16.20;83.60;;;;;;4988475;28;20134;-54
2023/05/25 03:25:01;;;;;;;10.88;5.95;;;16.20;83.60;;;;;;4986909;28;20073;-53
2023/05/25 03:27:26;;;;;;;7.32;5.85;;;16.20;83.70;;;;;;4986131;28;20061;-53
2023/05/25 03:29:52;;;;;;;12.30;6.35;;;16.10;83.80;;;;;;4985554;28;20233;-53
2023/05/25 03:32:17;;;;;;;9.50;6.22;;;16.10;84.00;;;;;;4986179;28;20033;-53
2023/05/25 03:34:43;;;;;;;21.23;6.45;;;16.10;84.00;;;;;;4986416;28;20050;-53
2023/05/25 03:37:09;;;;;;;10.63;6.43;;;16.10;84.10;;;;;;4986550;28;20027;-53
2023/05/25 03:39:35;;;;;;;14.98;6.55;;;16.00;84.20;;;;;;4986378;28;20070;-53
2023/05/25 03:42:01;;;;;;;13.60;7.90;;;16.00;84.30;;;;;;4986488;28;20023;-53
2023/05/25 03:44:27;;;;;;;13.25;7.85;;;16.00;84.40;;;;;;4986304;28;20035;-53
2023/05/25 03:46:52;;;;;;;33.08;9.52;;;16.00;84.40;;;;;;4986730;28;20501;-53
2023/05/25 03:49:18;;;;;;;38.97;9.93;;;16.00;84.40;;;;;;4987199;28;20438;-53
2023/05/25 03:51:43;;;;;;;31.38;8.95;;;16.00;84.40;;;;;;4985215;28;20101;-53
2023/05/25 03:54:09;;;;;;;30.15;9.32;;;16.00;84.40;;;;;;4968420;28;20043;-53
2023/05/25 03:56:35;;;;;;;38.90;8.68;;;16.00;84.50;;;;;;4976513;28;20037;-53
2023/05/25 03:59:00;;;;;;;33.40;8.50;;;15.90;85.20;;;;;;4969139;28;20034;-53
2023/05/25 04:01:28;;;;;;;42.53;8.75;;;15.90;84.60;;;;;;4985261;28;20058;-53
2023/05/25 04:03:54;;;;;;;50.38;10.73;;;15.90;84.70;;;;;;4986621;28;20395;-53
2023/05/25 04:06:20;;;;;;;32.40;8.88;;;15.90;84.70;;;;;;4970115;28;20031;-53
2023/05/25 04:08:46;;;;;;;26.27;7.72;;;15.90;84.80;;;;;;4986570;28;20035;-54
2023/05/25 04:11:12;;;;;;;34.88;8.88;;;15.90;84.80;;;;;;4984908;28;20186;-53
2023/05/25 04:13:39;;;;;;;32.20;8.13;;;15.90;84.90;;;;;;5016166;28;20046;-53
2023/05/25 04:16:05;;;;;;;36.30;8.88;;;15.90;84.80;;;;;;4985214;28;20054;-53
2023/05/25 04:18:32;;;;;;;39.47;8.02;;;15.90;84.80;;;;;;5001195;28;20046;-53
2023/05/25 04:20:58;;;;;;;27.50;7.90;;;15.80;84.90;;;;;;4985880;28;20062;-53
2023/05/25 04:23:24;;;;;;;37.25;7.85;;;15.90;84.90;;;;;;4985795;28;20026;-54
2023/05/25 04:25:50;;;;;;;40.70;7.70;;;15.90;84.80;;;;;;4985508;28;20050;-53
2023/05/25 04:28:16;;;;;;;31.58;7.13;;;15.90;85.50;;;;;;4985010;28;20027;-53
2023/05/25 04:30:42;;;;;;;31.95;7.72;;;15.80;84.80;;;;;;4985243;28;20038;-53
2023/05/25 04:33:10;;;;;;;24.23;8.35;;;15.80;85.00;;;;;;4983697;28;20041;-53
2023/05/25 04:35:36;;;;;;;30.25;7.50;;;15.90;85.00;;;;;;4986170;28;20041;-53
2023/05/25 04:38:01;;;;;;;26.48;7.85;;;15.80;84.90;;;;;;4984538;28;20113;-54
2023/05/25 04:40:27;;;;;;;27.92;7.25;;;15.80;85.00;;;;;;4984392;28;20027;-53
2023/05/25 04:42:54;;;;;;;22.67;7.53;;;15.80;84.90;;;;;;4985989;28;20035;-53
2023/05/25 04:45:20;;;;;;;27.27;7.38;;;15.90;84.90;;;;;;4985669;28;20097;-53
2023/05/25 04:47:46;;;;;;;30.70;7.95;;;15.90;84.90;;;;;;4986002;28;20027;-53
2023/05/25 04:50:12;;;;;;;27.58;8.77;;;15.80;84.80;;;;;;4984160;28;20046;-54
2023/05/25 04:52:37;;;;;;;28.67;8.20;;;15.80;84.90;;;;;;4980440;28;20596;-53
2023/05/25 04:55:03;;;;;;;34.67;8.70;;;15.80;85.00;;;;;;4965507;28;20085;-54
2023/05/25 04:57:30;;;;;;;35.15;8.07;;;15.80;85.20;;;;;;4971181;28;20038;-53
2023/05/25 04:59:56;;;;;;;30.02;7.18;;;15.80;85.50;;;;;;5018102;28;20023;-54
2023/05/25 05:02:21;;;;;;;38.22;7.65;;;15.80;85.80;;;;;;4969140;28;20094;-54
2023/05/25 05:04:51;;;;;;;30.10;8.40;;;15.80;85.90;;;;;;4984748;28;20031;-54
2023/05/25 05:07:16;;;;;;;31.23;7.40;;;15.80;85.90;;;;;;4985394;28;20082;-53
2023/05/25 05:09:42;;;;;;;23.42;7.28;;;15.80;85.80;;;;;;4984691;28;20427;-53
2023/05/25 05:12:07;;;;;;;30.23;6.85;;;15.80;85.60;;;;;;4985650;28;20102;-53
2023/05/25 05:14:33;;;;;;;26.40;6.68;;;15.80;85.50;;;;;;4985800;28;20047;-53
2023/05/25 05:16:58;;;;;;;29.10;7.07;;;15.80;85.50;;;;;;4983160;28;20087;-53
2023/05/25 05:19:24;;;;;;;24.80;6.57;;;15.80;85.40;;;;;;4985347;28;20030;-53
2023/05/25 05:21:50;;;;;;;22.98;7.47;;;15.80;85.40;;;;;;4985365;28;20026;-53
2023/05/25 05:24:15;;;;;;;28.00;7.03;;;15.80;85.30;;;;;;4984351;28;20031;-53
2023/05/25 05:26:41;;;;;;;30.08;7.63;;;15.80;85.30;;;;;;4984062;28;20037;-54
2023/05/25 05:29:06;;;;;;;32.78;7.95;;;15.80;85.30;;;;;;4983689;28;20038;-53
2023/05/25 05:31:33;;;;;;;48.67;8.85;;;15.90;85.40;;;;;;4983667;28;20042;-53
2023/05/25 05:33:58;;;;;;;41.60;9.60;;;15.80;85.30;;;;;;4985633;28;20107;-53
2023/05/25 05:36:24;;;;;;;45.00;8.98;;;15.80;85.30;;;;;;4984502;28;20106;-53
2023/05/25 05:38:50;;;;;;;54.13;9.90;;;15.90;85.40;;;;;;4984206;28;20031;-53
2023/05/25 05:41:15;;;;;;;54.63;10.30;;;15.80;85.40;;;;;;4984194;28;20357;-53
2023/05/25 05:43:42;;;;;;;54.30;10.02;;;15.80;85.40;;;;;;4984396;28;20035;-53
2023/05/25 05:46:09;;;;;;;53.38;9.98;;;15.80;85.50;;;;;;4985574;28;20094;-53
2023/05/25 05:48:35;;;;;;;43.92;9.77;;;15.80;85.50;;;;;;4984496;28;20058;-53
2023/05/25 05:51:02;;;;;;;48.10;8.95;;;15.80;85.60;;;;;;5000525;28;20107;-53
2023/05/25 05:53:27;;;;;;;63.00;9.80;;;15.80;85.60;;;;;;4983848;28;20037;-53
2023/05/25 05:55:57;;;;;;;37.42;8.55;;;15.80;85.50;;;;;;5016642;28;20102;-53
2023/05/25 05:58:26;;;;;;;47.80;8.15;;;15.80;85.60;;;;;;4985432;28;20066;-54
2023/05/25 06:00:52;;;;;;;30.17;7.32;;;15.70;85.70;;;;;;4984194;28;20030;-53
2023/05/25 06:03:19;;;;;;;37.97;8.25;;;15.70;85.90;;;;;;4983995;28;20031;-54
2023/05/25 06:05:44;;;;;;;53.65;8.30;;;15.70;85.70;;;;;;4982219;28;20043;-53
2023/05/25 06:08:10;;;;;;;31.10;7.65;;;15.80;85.70;;;;;;4984285;28;20027;-53
2023/05/25 06:10:37;;;;;;;51.38;7.53;;;15.70;85.60;;;;;;4953323;28;20111;-53
2023/05/25 06:13:02;;;;;;;31.98;7.32;;;15.70;85.60;;;;;;4957167;28;20143;-52
2023/05/25 06:15:28;;;;;;;41.42;7.88;;;15.70;85.70;;;;;;5014035;28;20055;-53
2023/05/25 06:17:53;;;;;;;44.30;8.02;;;15.70;85.80;;;;;;4984637;28;20050;-53
2023/05/25 06:20:19;;;;;;;27.25;7.20;;;15.70;85.70;;;;;;4986107;28;20479;-53
2023/05/25 06:22:45;;;;;;;33.10;7.15;;;15.60;85.70;;;;;;4987962;28;20031;-54
2023/05/25 06:25:10;;;;;;;33.08;6.72;;;15.70;85.70;;;;;;4988451;28;20098;-53
2023/05/25 06:27:36;;;;;;;31.88;6.97;;;15.70;85.70;;;;;;4989005;28;20077;-53
2023/05/25 06:30:02;;;;;;;24.52;5.75;;;15.70;85.60;;;;;;4986206;28;20482;-53
2023/05/25 06:32:27;;;;;;;33.92;6.38;;;15.70;85.60;;;;;;4985018;28;20038;-53
2023/05/25 06:34:53;;;;;;;34.58;7.25;;;15.70;85.60;;;;;;4978741;28;20055;-53
2023/05/25 06:37:19;;;;;;;41.90;8.18;;;15.80;85.80;;;;;;4989198;28;20031;-53
2023/05/25 06:39:44;;;;;;;39.17;8.15;;;15.70;85.70;;;;;;4985237;28;20031;-53
2023/05/25 06:42:10;;;;;;;34.03;7.18;;;15.70;85.70;;;;;;4983350;28;20086;-53
2023/05/25 06:44:36;;;;;;;27.48;7.45;;;15.70;85.70;;;;;;4977526;28;20035;-53
2023/05/25 06:47:01;;;;;;;25.98;6.68;;;15.80;85.70;;;;;;5015522;28;20029;-53
2023/05/25 06:49:27;;;;;;;25.77;6.93;;;15.70;85.60;;;;;;4985999;28;20027;-53
2023/05/25 06:51:53;;;;;;;24.17;6.20;;;15.70;85.70;;;;;;4985916;28;20095;-53
2023/05/25 06:54:19;;;;;;;23.50;6.60;;;15.80;85.80;;;;;;4969068;28;20376;-53
2023/05/25 06:56:45;;;;;;;14.68;5.45;;;15.70;85.70;;;;;;4988497;28;20077;-53
2023/05/25 06:59:10;;;;;;;28.13;5.95;;;15.70;85.80;;;;;;4987696;28;20082;-53
2023/05/25 07:01:36;;;;;;;20.27;6.07;;;15.80;85.90;;;;;;4986646;28;20018;-53
2023/05/25 07:04:01;;;;;;;16.13;5.57;;;15.80;86.00;;;;;;4988691;28;20041;-53
2023/05/25 07:06:27;;;;;;;11.82;5.40;;;15.70;85.90;;;;;;4984456;28;20031;-53
2023/05/25 07:08:54;;;;;;;24.92;6.50;;;15.80;86.00;;;;;;5001139;28;20472;-53
2023/05/25 07:11:20;;;;;;;23.40;6.65;;;15.80;85.90;;;;;;4984776;28;20034;-53
2023/05/25 07:13:46;;;;;;;23.23;7.13;;;15.80;86.00;;;;;;4984460;28;20090;-53
2023/05/25 07:16:12;;;;;;;29.95;7.45;;;15.80;86.00;;;;;;4985363;28;20039;-53
2023/05/25 07:18:39;;;;;;;32.17;6.50;;;15.80;86.00;;;;;;4985496;28;20058;-53
2023/05/25 07:21:05;;;;;;;19.20;6.53;;;15.80;86.00;;;;;;4984630;28;20023;-53
2023/05/25 07:23:31;;;;;;;26.50;5.82;;;15.80;85.90;;;;;;4984079;28;20030;-53
2023/05/25 07:25:56;;;;;;;26.70;7.38;;;15.90;85.90;;;;;;4985658;28;20031;-53
2023/05/25 07:28:22;;;;;;;21.75;7.10;;;15.90;86.00;;;;;;4982602;28;20581;-53
2023/05/25 07:30:47;;;;;;;20.67;6.38;;;15.90;85.90;;;;;;4984260;28;20042;-54
2023/05/25 07:33:13;;;;;;;30.08;7.55;;;15.90;85.90;;;;;;4985106;28;20039;-54
2023/05/25 07:35:39;;;;;;;21.92;6.47;;;16.00;86.00;;;;;;4985798;28;20062;-53
2023/05/25 07:38:05;;;;;;;23.35;6.35;;;16.00;85.90;;;;;;4982412;28;20031;-53
2023/05/25 07:40:30;;;;;;;23.27;6.22;;;16.00;85.90;;;;;;4976278;28;20047;-54
2023/05/25 07:42:56;;;;;;;23.45;6.00;;;16.00;85.90;;;;;;4985817;28;20376;-54
2023/05/25 07:45:21;;;;;;;23.83;6.97;;;16.00;85.90;;;;;;4985381;28;20110;-53
2023/05/25 07:47:47;;;;;;;24.00;5.68;;;16.00;85.90;;;;;;4981873;28;20074;-54
2023/05/25 07:50:13;;;;;;;22.63;5.80;;;16.10;85.80;;;;;;4981659;28;20047;-55
2023/05/25 07:52:39;;;;;;;18.58;5.68;;;16.10;85.80;;;;;;4985352;28;20119;-53
2023/05/25 07:55:07;;;;;;;38.60;6.53;;;16.10;85.80;;;;;;4982554;28;20046;-53
2023/05/25 07:57:33;;;;;;;29.38;7.20;;;16.10;85.70;;;;;;4981650;28;20038;-56
2023/05/25 07:59:59;;;;;;;29.25;7.25;;;16.20;85.70;;;;;;4984850;28;20027;-56
2023/05/25 08:02:24;;;;;;;26.50;6.40;;;16.20;85.70;;;;;;4986469;28;20026;-56
2023/05/25 08:04:50;;;;;;;26.33;6.72;;;16.20;85.60;;;;;;4987354;28;20056;-55
2023/05/25 08:07:18;;;;;;;38.40;7.13;;;16.20;85.70;;;;;;4966289;28;20041;-55
2023/05/25 08:09:43;;;;;;;40.80;7.35;;;16.30;85.70;;;;;;4979991;28;20086;-56
2023/05/25 08:12:09;;;;;;;22.80;6.63;;;16.30;85.60;;;;;;4979052;28;20022;-55
2023/05/25 08:14:34;;;;;;;40.55;7.63;;;16.30;85.50;;;;;;4983065;28;20031;-55
2023/05/25 08:17:01;;;;;;;38.63;7.57;;;16.40;85.50;;;;;;4984774;28;20033;-56
2023/05/25 08:19:27;;;;;;;35.55;7.45;;;16.40;85.40;;;;;;4982540;28;20080;-55
2023/05/25 08:21:52;;;;;;;27.58;6.55;;;16.40;85.40;;;;;;4995126;28;20050;-56
2023/05/25 08:24:18;;;;;;;27.00;7.00;;;16.40;85.40;;;;;;4983266;28;20439;-60
2023/05/25 08:26:46;;;;;;;25.05;5.70;;;16.40;85.40;;;;;;4983819;28;20148;-61
2023/05/25 08:29:12;;;;;;;25.73;6.03;;;16.50;85.30;;;;;;4981457;28;20031;-61
2023/05/25 08:31:37;;;;;;;34.53;7.60;;;16.50;85.20;;;;;;4982875;28;20130;-60
2023/05/25 08:34:03;;;;;;;30.63;7.30;;;16.60;85.20;;;;;;5006163;28;20037;-61
2023/05/25 08:36:28;;;;;;;29.33;7.55;;;16.60;85.10;;;;;;4983195;28;20031;-63
2023/05/25 08:38:54;;;;;;;30.35;6.63;;;16.60;85.10;;;;;;4984934;28;20027;-60
2023/05/25 08:41:22;;;;;;;38.15;8.40;;;16.60;85.00;;;;;;4981470;28;20069;-60
2023/05/25 08:43:48;;;;;;;21.85;6.95;;;16.60;85.00;;;;;;4981488;28;20713;-61
2023/05/25 08:46:13;;;;;;;28.55;7.65;;;16.60;85.00;;;;;;4982438;28;20038;-60
2023/05/25 08:48:39;;;;;;;24.35;6.35;;;16.70;85.00;;;;;;4983472;28;20045;-60
2023/05/25 08:51:06;;;;;;;31.35;7.32;;;16.70;85.00;;;;;;4983322;28;20113;-61
2023/05/25 08:53:34;;;;;;;39.22;6.97;;;16.70;85.00;;;;;;4982932;28;20051;-60
2023/05/25 08:56:00;;;;;;;27.75;6.80;;;16.70;85.00;;;;;;4968850;28;20039;-60
2023/05/25 08:58:31;;;;;;;42.13;7.53;;;16.80;85.00;;;;;;4984331;28;20479;-60
2023/05/25 09:00:58;;;;;;;25.85;6.57;;;16.80;84.90;;;;;;4984122;28;20038;-61
2023/05/25 09:03:24;;;;;;;34.75;7.43;;;16.80;84.80;;;;;;4984309;28;20043;-60
2023/05/25 09:05:50;;;;;;;35.45;7.38;;;16.80;84.80;;;;;;4965750;28;20180;-61
2023/05/25 09:08:15;;;;;;;40.50;7.30;;;16.90;84.80;;;;;;4999738;28;20030;-65
2023/05/25 09:10:41;;;;;;;41.80;7.90;;;16.90;84.80;;;;;;4984427;28;20101;-62
2023/05/25 09:13:07;;;;;;;30.10;7.30;;;16.90;84.80;;;;;;4983451;28;20095;-60
2023/05/25 09:15:33;;;;;;;38.33;7.35;;;16.90;84.80;;;;;;4982339;28;20093;-60
2023/05/25 09:17:58;;;;;;;35.67;7.50;;;17.00;84.90;;;;;;4982966;28;20030;-61
2023/05/25 09:20:30;;;;;;;37.97;7.80;;;17.00;84.90;;;;;;4983455;28;20054;-60
2023/05/25 09:22:58;;;;;;;46.17;8.43;;;17.00;84.80;;;;;;4985061;28;20055;-60
2023/05/25 09:25:26;;;;;;;33.00;8.57;;;17.10;84.70;;;;;;4984434;28;20035;-60
2023/05/25 09:27:52;;;;;;;28.90;7.68;;;17.10;84.70;;;;;;4983299;28;20042;-60
2023/05/25 09:30:17;;;;;;;149.02;18.45;;;17.20;84.80;;;;;;4982704;28;20027;-60
2023/05/25 09:32:43;;;;;;;122.88;14.70;;;17.20;84.80;;;;;;4984788;28;20115;-60
2023/05/25 09:35:12;;;;;;;47.60;9.95;;;17.20;84.90;;;;;;4983461;28;20119;-60
2023/05/25 09:37:38;;;;;;;62.40;10.20;;;17.20;84.80;;;;;;4982703;28;20448;-58
2023/05/25 09:40:04;;;;;;;62.33;10.02;;;17.30;84.80;;;;;;4983493;28;20031;-58
2023/05/25 09:42:33;;;;;;;63.55;9.77;;;17.30;84.70;;;;;;4983015;28;20038;-58
2023/05/25 09:44:59;;;;;;;93.85;12.25;;;17.30;84.70;;;;;;4971791;28;20511;-58
2023/05/25 09:47:27;;;;;;;79.70;11.23;;;17.40;84.60;;;;;;4974541;28;20367;-58
2023/05/25 09:49:53;;;;;;;51.53;10.85;;;17.40;84.40;;;;;;4979484;28;20034;-58
2023/05/25 09:52:19;;;;;;;72.47;11.38;;;17.50;84.40;;;;;;4972363;28;20091;-62
2023/05/25 09:54:46;;;;;;;68.18;12.20;;;17.50;84.40;;;;;;4989556;28;20026;-58
2023/05/25 09:57:12;;;;;;;173.68;21.48;;;17.50;84.40;;;;;;4991846;28;20101;-58
2023/05/25 09:59:37;;;;;;;63.58;12.65;;;17.60;84.40;;;;;;4984527;28;20039;-58
2023/05/25 10:02:03;;;;;;;57.13;12.00;;;17.60;84.40;;;;;;4986147;28;20023;-58
2023/05/25 10:04:28;;;;;;;48.88;10.48;;;17.60;84.10;;;;;;4981169;28;20089;-58
2023/05/25 10:06:55;;;;;;;57.00;8.93;;;17.70;84.00;;;;;;4983387;28;20086;-58
2023/05/25 10:09:21;;;;;;;61.63;10.35;;;17.70;84.00;;;;;;4965668;28;20031;-58
2023/05/25 10:11:47;;;;;;;48.40;9.40;;;17.70;84.00;;;;;;4980425;28;20027;-58
2023/05/25 10:14:16;;;;;;;57.40;9.85;;;17.70;83.90;;;;;;4995038;28;20035;-58
2023/05/25 10:16:42;;;;;;;45.60;9.05;;;17.80;84.00;;;;;;4984042;28;20069;-58
2023/05/25 10:19:16;;;;;;;37.67;8.68;;;17.80;83.80;;;;;;4985481;28;20031;-58
2023/05/25 10:21:43;;;;;;;13.90;7.43;;;17.80;83.70;;;;;;4992556;28;20042;-58
2023/05/25 10:24:33;;;;;;;29.60;8.13;;;17.80;83.80;;;;;;4986490;28;20042;-58
2023/05/25 10:27:00;;;;;;;20.55;7.47;;;17.80;83.90;;;;;;4985942;28;20149;-58
2023/05/25 10:29:26;;;;;;;27.90;7.95;;;17.80;84.00;;;;;;4985324;28;20035;-58
2023/05/25 10:31:52;;;;;;;37.13;8.30;;;17.90;84.20;;;;;;4985890;28;20062;-58
2023/05/25 10:34:18;;;;;;;34.90;9.27;;;17.90;84.10;;;;;;4969833;28;20030;-58
2023/05/25 10:36:43;;;;;;;91.57;13.32;;;17.90;84.00;;;;;;4983588;28;20026;-58
2023/05/25 10:39:09;;;;;;;72.57;12.65;;;18.00;84.10;;;;;;4983498;28;20546;-58
2023/05/25 10:41:34;;;;;;;63.40;10.93;;;18.00;84.00;;;;;;4968431;28;20030;-58
2023/05/25 10:44:00;;;;;;;33.60;8.25;;;18.00;83.90;;;;;;4986809;28;20035;-58
2023/05/25 10:46:26;;;;;;;43.97;9.20;;;18.10;83.90;;;;;;4965174;28;20031;-57
2023/05/25 10:48:51;;;;;;;66.68;10.98;;;18.10;83.80;;;;;;4968237;28;20042;-58
2023/05/25 10:51:20;;;;;;;44.53;9.52;;;18.10;83.70;;;;;;4963556;28;20051;-58
2023/05/25 10:53:46;;;;;;;42.22;9.15;;;18.00;83.50;;;;;;4983260;28;20043;-58
2023/05/25 10:56:13;;;;;;;39.13;9.50;;;18.20;83.50;;;;;;4984266;28;20091;-58
2023/05/25 10:58:45;;;;;;;55.83;10.10;;;18.20;83.60;;;;;;4985662;28;20058;-58
2023/05/25 11:01:11;;;;;;;28.70;8.07;;;18.20;83.60;;;;;;4984508;28;20102;-58
2023/05/25 11:03:43;;;;;;;12.52;7.35;;;18.20;83.60;;;;;;4962196;28;20027;-58
2023/05/25 11:06:16;;;;;;;31.80;8.07;;;18.20;83.20;;;;;;4985325;28;20062;-58
2023/05/25 11:08:55;;;;;;;44.95;9.55;;;18.20;83.30;;;;;;4985808;28;20105;-58
2023/05/25 11:11:41;;;;;;;47.97;9.45;;;18.20;83.30;;;;;;4969614;28;20085;-58
2023/05/25 11:14:20;;;;;;;33.55;8.85;;;18.30;83.30;;;;;;4975750;28;20043;-58
2023/05/25 11:17:23;;;;;;;52.33;9.10;;;18.30;83.20;;;;;;4985697;28;20094;-58
2023/05/25 11:19:53;;;;;;;39.92;8.82;;;18.40;83.30;;;;;;4928750;29;20040;-60
2023/05/25 11:22:22;;;;;;;65.78;11.02;;;18.40;83.10;;;;;;4994835;28;20053;-58
2023/05/25 11:24:49;;;;;;;222.60;26.83;;;18.40;83.20;;;;;;4982989;28;20046;-60
2023/05/25 11:27:14;;;;;;;69.70;11.77;;;18.50;83.20;;;;;;4985350;28;20045;-58
2023/05/25 11:29:40;;;;;;;65.82;10.45;;;18.50;83.00;;;;;;4985140;28;20101;-58
2023/05/25 11:32:15;;;;;;;55.83;10.18;;;18.50;83.10;;;;;;4980063;28;20038;-59
2023/05/25 11:34:45;;;;;;;49.75;9.77;;;18.60;82.90;;;;;;4997117;28;20030;-58
2023/05/25 11:37:19;;;;;;;49.30;9.98;;;18.60;82.80;;;;;;4980609;28;20031;-58
2023/05/25 11:39:52;;;;;;;43.93;9.50;;;18.70;82.60;;;;;;4982604;28;20055;-58
2023/05/25 11:42:25;;;;;;;34.50;8.52;;;18.70;82.50;;;;;;4977806;28;20091;-58
2023/05/25 11:44:50;;;;;;;31.85;7.75;;;18.70;82.30;;;;;;4955501;28;20110;-59
2023/05/25 11:47:18;;;;;;;28.88;7.72;;;18.80;82.20;;;;;;4986397;28;20077;-58
2023/05/25 11:49:45;;;;;;;30.85;7.97;;;18.80;82.10;;;;;;4983754;28;20050;-58
2023/05/25 11:52:12;;;;;;;30.83;8.30;;;18.80;82.10;;;;;;4981925;28;20042;-58
2023/05/25 11:54:39;;;;;;;27.27;7.35;;;18.80;82.10;;;;;;4986962;28;20193;-58
2023/05/25 11:57:23;;;;;;;21.05;6.80;;;18.80;82.10;;;;;;4985272;28;20057;-59
2023/05/25 12:00:00;;;;;;;15.48;6.13;;;18.90;81.90;;;;;;4977581;28;20032;-58
2023/05/25 12:02:26;;;;;;;21.77;7.50;;;18.90;81.80;;;;;;4970551;28;20110;-57
2023/05/25 12:04:56;;;;;;;16.63;6.50;;;18.90;81.80;;;;;;4982013;28;20519;-58
2023/05/25 12:07:21;;;;;;;14.32;6.80;;;18.90;81.80;;;;;;4976580;28;20023;-58
2023/05/25 12:09:47;;;;;;;14.25;6.38;;;19.00;81.80;;;;;;4975974;28;20050;-58
2023/05/25 12:12:12;;;;;;;27.05;7.95;;;19.00;81.80;;;;;;4982432;28;20042;-58
2023/05/25 12:14:48;;;;;;;21.70;7.60;;;19.10;81.70;;;;;;4978273;28;20422;-58
2023/05/25 12:17:14;;;;;;;21.52;7.25;;;19.00;81.60;;;;;;4959623;28;20094;-58
2023/05/25 12:19:40;;;;;;;35.22;8.30;;;19.10;81.80;;;;;;4980025;28;20506;-58
2023/05/25 12:22:05;;;;;;;22.85;6.88;;;19.10;81.70;;;;;;4987403;28;20169;-58
2023/05/25 12:24:31;;;;;;;28.55;7.75;;;19.20;81.70;;;;;;4983010;28;20121;-58
2023/05/25 12:26:57;;;;;;;25.25;7.75;;;19.20;81.60;;;;;;4983930;28;20424;-58
2023/05/25 12:29:24;;;;;;;32.67;9.15;;;19.30;81.50;;;;;;4978343;28;20452;-58
2023/05/25 12:31:50;;;;;;;39.63;8.02;;;19.30;81.40;;;;;;4992628;28;20037;-57
2023/05/25 12:34:16;;;;;;;22.08;8.38;;;19.40;81.30;;;;;;4989538;28;20035;-58